createdAt,value
2022-10-17T00:02:25.807Z,84.33
2022-10-17T00:04:55.547Z,84.63
2022-10-17T00:07:25.969Z,84.98
2022-10-17T00:09:56.073Z,83.99
2022-10-17T00:12:25.874Z,84.32
2022-10-17T00:14:55.616Z,84.76
2022-10-17T00:17:25.667Z,84.96
2022-10-17T00:19:55.646Z,84.48
2022-10-17T00:22:25.431Z,84.68
2022-10-17T00:24:55.214Z,84.62
2022-10-17T00:27:25.739Z,84.62
2022-10-17T00:29:55.999Z,85.65
2022-10-17T00:32:26.095Z,85.72
2022-10-17T00:34:56.004Z,85.40
2022-10-17T00:37:27.515Z,85.30
2022-10-17T00:39:57.593Z,85.79
2022-10-17T00:42:28.328Z,85.60
2022-10-17T00:45:22.958Z,85.69
2022-10-17T00:47:56.113Z,85.75
2022-10-17T00:50:26.335Z,85.75
2022-10-17T00:52:57.661Z,86.31
2022-10-17T00:55:30.446Z,86.96
2022-10-17T00:58:03.829Z,86.96
2022-10-17T01:00:34.034Z,86.20
2022-10-17T01:03:03.493Z,86.15
2022-10-17T01:05:33.290Z,87.04
2022-10-17T01:08:03.898Z,86.49
2022-10-17T01:10:41.632Z,86.08
2022-10-17T01:13:26.002Z,85.67
2022-10-17T01:15:58.796Z,86.37
2022-10-17T01:18:49.203Z,86.10
2022-10-17T01:21:49.015Z,86.95
2022-10-17T01:24:36.537Z,86.95
2022-10-17T01:27:33.559Z,86.95
2022-10-17T01:30:34.812Z,86.69
2022-10-17T01:33:22.368Z,87.76
2022-10-17T01:36:01.829Z,88.18
2022-10-17T01:38:37.581Z,88.32
2022-10-17T01:41:19.416Z,87.08
2022-10-17T01:43:52.491Z,87.21
2022-10-17T01:46:43.285Z,87.52
2022-10-17T01:49:16.535Z,87.62
2022-10-17T01:52:00.786Z,89.45
2022-10-17T01:54:53.270Z,88.67
2022-10-17T01:57:32.316Z,87.59
2022-10-17T02:00:05.612Z,87.09
2022-10-17T02:02:38.208Z,87.09
2022-10-17T02:05:08.887Z,86.69
2022-10-17T02:07:38.789Z,87.17
2022-10-17T02:10:11.634Z,88.94
2022-10-17T02:12:45.628Z,87.02
2022-10-17T02:15:31.004Z,87.51
2022-10-17T02:18:13.560Z,87.12
2022-10-17T02:20:51.876Z,86.67
2022-10-17T02:23:36.022Z,87.25
2022-10-17T02:26:20.376Z,87.17
2022-10-17T02:29:01.803Z,87.48
2022-10-17T02:31:34.612Z,87.50
2022-10-17T02:34:09.585Z,87.84
2022-10-17T02:36:45.242Z,87.75
2022-10-17T02:39:16.574Z,87.41
2022-10-17T02:41:47.520Z,87.78
2022-10-17T02:44:18.324Z,87.11
2022-10-17T02:46:52.789Z,87.11
2022-10-17T02:49:28.391Z,87.45
2022-10-17T02:52:03.601Z,86.92
2022-10-17T02:54:42.062Z,87.17
2022-10-17T02:57:14.977Z,87.26
2022-10-17T02:59:46.803Z,87.51
2022-10-17T03:02:18.269Z,87.50
2022-10-17T03:04:49.082Z,86.92
2022-10-17T03:07:18.845Z,86.81
2022-10-17T03:09:48.652Z,86.81
2022-10-17T03:12:18.911Z,87.87
2022-10-17T03:14:48.659Z,87.30
2022-10-17T03:17:18.678Z,87.00
2022-10-17T03:19:48.886Z,87.41
2022-10-17T03:22:18.783Z,87.55
2022-10-17T03:24:48.992Z,88.20
2022-10-17T03:27:18.937Z,88.52
2022-10-17T03:29:49.390Z,87.68
2022-10-17T03:32:19.811Z,88.03
2022-10-17T03:34:50.693Z,87.72
2022-10-17T03:37:20.518Z,87.74
2022-10-17T03:39:54.604Z,88.05
2022-10-17T03:42:25.143Z,87.92
2022-10-17T03:44:55.181Z,87.71
2022-10-17T03:47:25.000Z,88.02
2022-10-17T03:49:55.038Z,87.59
2022-10-17T03:52:25.165Z,87.32
2022-10-17T03:54:55.205Z,87.73
2022-10-17T03:57:24.960Z,86.98
2022-10-17T03:59:55.168Z,86.63
2022-10-17T04:02:24.990Z,87.15
2022-10-17T04:04:55.047Z,87.15
2022-10-17T04:09:54.865Z,87.70
2022-10-17T04:12:25.007Z,87.21
2022-10-17T04:14:55.533Z,86.83
2022-10-17T04:17:25.850Z,86.21
2022-10-17T04:19:56.154Z,86.42
2022-10-17T04:22:25.821Z,86.39
2022-10-17T04:24:55.531Z,87.78
2022-10-17T04:27:29.900Z,87.78
2022-10-17T04:29:59.924Z,87.43
2022-10-17T04:32:29.933Z,86.87
2022-10-17T04:35:16.526Z,86.57
2022-10-17T04:37:48.434Z,86.67
2022-10-17T04:40:19.792Z,86.34
2022-10-17T04:42:49.359Z,85.90
2022-10-17T04:45:20.815Z,86.36
2022-10-17T04:47:52.583Z,86.40
2022-10-17T04:50:22.204Z,86.42
2022-10-17T04:52:53.667Z,86.67
2022-10-17T04:55:23.437Z,86.67
2022-10-17T04:57:53.222Z,86.05
2022-10-17T05:00:23.301Z,85.98
2022-10-17T05:03:00.500Z,85.98
2022-10-17T05:05:30.616Z,85.41
2022-10-17T05:08:00.718Z,85.51
2022-10-17T05:10:32.278Z,85.03
2022-10-17T05:13:02.083Z,85.52
2022-10-17T05:15:32.908Z,85.67
2022-10-17T05:18:03.913Z,85.00
2022-10-17T05:20:34.165Z,85.24
2022-10-17T05:23:04.350Z,85.36
2022-10-17T05:25:35.789Z,85.15
2022-10-17T05:28:05.408Z,85.17
2022-10-17T05:30:37.696Z,84.99
2022-10-17T05:33:09.028Z,85.00
2022-10-17T05:35:38.960Z,85.19
2022-10-17T05:38:09.183Z,84.94
2022-10-17T05:40:39.415Z,84.59
2022-10-17T05:43:09.226Z,84.59
2022-10-17T05:45:39.226Z,84.93
2022-10-17T05:48:11.565Z,84.78
2022-10-17T05:50:41.967Z,84.71
2022-10-17T05:53:13.169Z,84.84
2022-10-17T05:55:44.353Z,84.84
2022-10-17T05:58:22.111Z,84.97
2022-10-17T06:00:49.209Z,85.43
2022-10-17T06:03:19.402Z,84.92
2022-10-17T06:05:49.151Z,84.86
2022-10-17T06:08:18.998Z,84.61
2022-10-17T06:10:52.273Z,84.67
2022-10-17T06:13:22.016Z,84.85
2022-10-17T06:15:53.623Z,84.86
2022-10-17T06:18:23.600Z,85.67
2022-10-17T06:20:54.369Z,85.68
2022-10-17T06:23:24.190Z,85.19
2022-10-17T06:26:05.991Z,84.98
2022-10-17T06:28:37.300Z,85.44
2022-10-17T06:31:09.067Z,84.45
2022-10-17T06:33:39.655Z,84.82
2022-10-17T06:36:12.559Z,84.85
2022-10-17T06:38:42.739Z,85.49
2022-10-17T06:41:18.537Z,84.91
2022-10-17T06:43:48.738Z,85.62
2022-10-17T06:46:36.491Z,84.79
2022-10-17T06:49:08.274Z,85.13
2022-10-17T06:51:42.401Z,85.10
2022-10-17T06:54:15.545Z,85.10
2022-10-17T06:57:03.006Z,85.11
2022-10-17T06:59:51.036Z,84.56
2022-10-17T07:02:23.984Z,84.56
2022-10-17T07:04:56.390Z,84.76
2022-10-17T07:07:25.943Z,86.01
2022-10-17T07:09:55.593Z,84.28
2022-10-17T07:12:26.638Z,84.01
2022-10-17T07:14:56.849Z,83.78
2022-10-17T07:17:26.831Z,83.80
2022-10-17T07:19:57.034Z,83.42
2022-10-17T07:22:27.268Z,83.48
2022-10-17T07:24:58.958Z,83.43
2022-10-17T07:27:30.798Z,82.37
2022-10-17T07:30:01.061Z,81.65
2022-10-17T07:32:41.339Z,81.56
2022-10-17T07:35:13.269Z,81.80
2022-10-17T07:37:43.601Z,81.80
2022-10-17T07:40:15.469Z,80.80
2022-10-17T07:42:45.760Z,80.69
2022-10-17T07:45:16.016Z,80.38
2022-10-17T07:47:46.170Z,80.73
2022-10-17T07:50:20.857Z,80.30
2022-10-17T07:52:51.064Z,80.94
2022-10-17T07:55:23.627Z,81.15
2022-10-17T07:57:53.436Z,80.79
2022-10-17T08:00:22.892Z,80.45
2022-10-17T08:02:52.639Z,80.81
2022-10-17T08:05:22.102Z,81.65
2022-10-17T08:07:52.125Z,81.37
2022-10-17T08:10:21.946Z,82.11
2022-10-17T08:12:51.438Z,82.58
2022-10-17T08:15:21.836Z,83.01
2022-10-17T08:17:51.846Z,82.88
2022-10-17T08:20:21.281Z,86.29
2022-10-17T08:22:55.855Z,89.97
2022-10-17T08:25:25.712Z,88.55
2022-10-17T08:27:55.567Z,88.55
2022-10-17T08:30:25.351Z,88.67
2022-10-17T08:32:56.247Z,90.20
2022-10-17T08:35:25.776Z,91.24
2022-10-17T08:37:55.277Z,89.14
2022-10-17T08:40:28.881Z,89.59
2022-10-17T08:43:04.100Z,89.40
2022-10-17T08:45:51.680Z,91.92
2022-10-17T08:48:24.572Z,91.92
2022-10-17T08:51:03.124Z,92.13
2022-10-17T08:53:38.803Z,93.40
2022-10-17T08:56:25.125Z,92.86
2022-10-17T08:58:53.585Z,92.01
2022-10-17T09:01:53.067Z,92.01
2022-10-17T09:04:57.301Z,92.77
2022-10-17T09:07:35.554Z,92.03
2022-10-17T09:10:17.688Z,92.03
2022-10-17T09:13:14.307Z,91.27
2022-10-17T09:15:49.580Z,91.30
2022-10-17T09:18:27.890Z,90.78
2022-10-17T09:21:00.683Z,90.40
2022-10-17T09:23:37.968Z,90.55
2022-10-17T09:26:12.152Z,90.01
2022-10-17T09:28:43.119Z,90.63
2022-10-17T09:31:21.605Z,90.77
2022-10-17T09:33:55.110Z,92.17
2022-10-17T09:36:33.551Z,92.17
2022-10-17T09:39:20.790Z,93.46
2022-10-17T09:41:58.509Z,94.24
2022-10-17T09:44:37.095Z,92.06
2022-10-17T09:47:15.689Z,92.06
2022-10-17T09:49:47.581Z,91.70
2022-10-17T09:52:38.330Z,91.69
2022-10-17T09:55:23.150Z,91.45
2022-10-17T09:58:03.822Z,92.27
2022-10-17T10:00:44.387Z,92.46
2022-10-17T10:03:25.996Z,91.97
2022-10-17T10:06:04.937Z,91.94
2022-10-17T10:08:37.903Z,91.94
2022-10-17T10:11:13.791Z,92.39
2022-10-17T10:13:41.560Z,92.66
2022-10-17T10:16:33.167Z,91.60
2022-10-17T10:19:05.837Z,91.75
2022-10-17T10:21:37.276Z,91.25
2022-10-17T10:24:15.971Z,92.46
2022-10-17T10:26:48.819Z,92.46
2022-10-17T10:29:28.799Z,91.46
2022-10-17T10:32:19.379Z,91.06
2022-10-17T10:35:00.459Z,90.87
2022-10-17T10:37:33.198Z,90.80
2022-10-17T10:40:06.227Z,90.91
2022-10-17T10:42:41.064Z,91.60
2022-10-17T10:45:47.343Z,91.05
2022-10-17T10:48:03.959Z,91.77
2022-10-17T10:50:44.381Z,91.51
2022-10-17T10:53:31.694Z,91.08
2022-10-17T10:56:29.593Z,90.62
2022-10-17T11:02:17.370Z,90.08
2022-10-17T11:04:50.224Z,90.08
2022-10-17T11:07:28.962Z,90.36
2022-10-17T11:10:16.738Z,89.70
2022-10-17T11:12:55.637Z,90.56
2022-10-17T11:15:34.085Z,90.41
2022-10-17T11:18:12.424Z,90.17
2022-10-17T11:21:06.145Z,89.71
2022-10-17T11:23:39.223Z,90.12
2022-10-17T11:26:26.515Z,90.24
2022-10-17T11:28:58.973Z,89.49
2022-10-17T11:31:32.074Z,90.39
2022-10-17T11:34:07.259Z,90.18
2022-10-17T11:36:40.381Z,88.95
2022-10-17T11:39:19.201Z,89.92
2022-10-17T11:41:54.178Z,89.20
2022-10-17T11:44:40.350Z,89.18
2022-10-17T11:47:39.428Z,89.07
2022-10-17T11:52:57.285Z,89.65
2022-10-17T11:55:28.381Z,88.94
2022-10-17T11:58:26.837Z,89.16
2022-10-17T12:01:05.327Z,89.21
2022-10-17T12:03:43.896Z,88.45
2022-10-17T12:06:29.274Z,88.30
2022-10-17T12:09:13.872Z,89.11
2022-10-17T12:12:03.689Z,88.67
2022-10-17T12:14:39.642Z,88.67
2022-10-17T12:17:36.159Z,88.75
2022-10-17T12:20:24.609Z,89.03
2022-10-17T12:23:00.343Z,89.18
2022-10-17T12:25:37.758Z,88.65
2022-10-17T12:28:16.166Z,88.85
2022-10-17T12:30:54.661Z,88.06
2022-10-17T12:33:30.034Z,88.24
2022-10-17T12:36:21.841Z,88.98
2022-10-17T12:39:07.888Z,90.60
2022-10-17T12:41:44.685Z,90.34
2022-10-17T12:44:19.206Z,89.31
2022-10-17T12:46:54.791Z,89.50
2022-10-17T12:49:46.792Z,89.31
2022-10-17T12:52:35.350Z,89.94
2022-10-17T12:55:13.236Z,88.62
2022-10-17T12:57:58.582Z,88.11
2022-10-17T13:00:37.013Z,88.33
2022-10-17T13:03:15.617Z,88.21
2022-10-17T13:05:48.413Z,87.86
2022-10-17T13:08:21.218Z,87.41
2022-10-17T13:10:53.313Z,88.14
2022-10-17T13:13:38.337Z,88.49
2022-10-17T13:16:08.633Z,88.95
2022-10-17T13:18:38.539Z,89.08
2022-10-17T13:21:16.326Z,88.26
2022-10-17T13:23:48.119Z,88.51
2022-10-17T13:26:25.747Z,88.46
2022-10-17T13:29:15.896Z,88.75
2022-10-17T13:31:46.161Z,88.86
2022-10-17T13:34:19.041Z,88.78
2022-10-17T13:36:51.475Z,89.07
2022-10-17T13:39:45.341Z,89.39
2022-10-17T13:41:59.850Z,91.18
2022-10-17T13:44:32.585Z,90.14
2022-10-17T13:47:02.597Z,89.55
2022-10-17T13:49:38.288Z,90.29
2022-10-17T13:52:10.799Z,89.39
2022-10-17T13:54:45.675Z,89.44
2022-10-17T13:57:29.955Z,88.40
2022-10-17T14:00:02.938Z,88.95
2022-10-17T14:02:36.330Z,88.79
2022-10-17T14:05:23.191Z,88.79
2022-10-17T14:08:11.895Z,88.75
2022-10-17T14:10:36.801Z,88.64
2022-10-17T14:13:08.265Z,88.83
2022-10-17T14:15:38.545Z,88.67
2022-10-17T14:18:11.587Z,88.80
2022-10-17T14:21:19.782Z,87.16
2022-10-17T14:23:40.040Z,87.16
2022-10-17T14:26:15.102Z,86.78
2022-10-17T14:28:47.978Z,87.41
2022-10-17T14:31:25.034Z,88.33
2022-10-17T14:33:55.608Z,88.37
2022-10-17T14:36:39.510Z,88.26
2022-10-17T14:39:14.466Z,88.29
2022-10-17T14:41:46.691Z,87.91
2022-10-17T14:44:25.106Z,86.82
2022-10-17T14:47:30.319Z,87.86
2022-10-17T14:49:40.585Z,87.01
2022-10-17T14:52:19.599Z,87.04
2022-10-17T14:54:50.894Z,86.33
2022-10-17T14:57:32.075Z,85.89
2022-10-17T15:00:01.889Z,85.89
2022-10-17T15:02:32.093Z,86.77
2022-10-17T15:05:02.045Z,86.50
2022-10-17T15:07:31.888Z,86.16
2022-10-17T15:10:01.694Z,87.75
2022-10-17T15:12:32.838Z,86.91
2022-10-17T15:15:02.661Z,87.36
2022-10-17T15:17:34.671Z,86.92
2022-10-17T15:20:09.207Z,86.83
2022-10-17T15:22:38.957Z,86.21
2022-10-17T15:25:09.278Z,86.87
2022-10-17T15:27:39.025Z,86.29
2022-10-17T15:30:21.473Z,86.31
2022-10-17T15:32:51.481Z,86.06
2022-10-17T15:35:21.903Z,86.04
2022-10-17T15:37:52.239Z,86.00
2022-10-17T15:40:24.784Z,85.96
2022-10-17T15:42:54.596Z,86.02
2022-10-17T15:45:25.101Z,85.71
2022-10-17T15:47:57.982Z,85.23
2022-10-17T15:50:29.381Z,86.23
2022-10-17T15:53:00.131Z,85.85
2022-10-17T15:55:29.886Z,85.39
2022-10-17T15:57:59.637Z,85.59
2022-10-17T16:00:29.501Z,85.11
2022-10-17T16:03:00.412Z,85.75
2022-10-17T16:05:30.181Z,85.36
2022-10-17T16:07:59.942Z,86.04
2022-10-17T16:10:29.806Z,87.23
2022-10-17T16:12:59.276Z,86.75
2022-10-17T16:15:29.381Z,86.76
2022-10-17T16:18:01.726Z,87.32
2022-10-17T16:20:31.991Z,87.91
2022-10-17T16:23:03.011Z,87.68
2022-10-17T16:25:33.619Z,86.97
2022-10-17T16:28:04.116Z,86.81
2022-10-17T16:30:36.205Z,87.94
2022-10-17T16:33:06.016Z,87.61
2022-10-17T16:35:37.633Z,87.65
2022-10-17T16:38:09.979Z,87.84
2022-10-17T16:40:40.255Z,88.36
2022-10-17T16:43:14.490Z,87.92
2022-10-17T16:45:44.229Z,88.92
2022-10-17T16:48:14.051Z,88.85
2022-10-17T16:50:44.122Z,88.48
2022-10-17T16:53:13.910Z,88.90
2022-10-17T16:55:43.698Z,88.61
2022-10-17T16:58:13.288Z,87.89
2022-10-17T17:00:43.076Z,88.48
2022-10-17T17:03:12.825Z,88.99
2022-10-17T17:05:42.575Z,87.87
2022-10-17T17:08:12.920Z,88.67
2022-10-17T17:10:47.168Z,89.20
2022-10-17T17:13:16.937Z,89.19
2022-10-17T17:15:47.239Z,88.44
2022-10-17T17:18:17.000Z,88.11
2022-10-17T17:20:46.737Z,88.05
2022-10-17T17:23:16.860Z,88.05
2022-10-17T17:25:46.601Z,88.66
2022-10-17T17:28:16.107Z,88.57
2022-10-17T17:30:46.166Z,88.57
2022-10-17T17:33:16.199Z,89.01
2022-10-17T17:35:45.964Z,88.20
2022-10-17T17:38:15.709Z,87.90
2022-10-17T17:40:50.571Z,87.74
2022-10-17T17:43:18.433Z,88.03
2022-10-17T17:45:48.239Z,87.68
2022-10-17T17:48:18.002Z,87.87
2022-10-17T17:50:48.131Z,87.23
2022-10-17T17:53:18.804Z,87.19
2022-10-17T17:55:48.566Z,88.06
2022-10-17T17:58:18.313Z,87.51
2022-10-17T18:00:48.068Z,88.00
2022-10-17T18:03:18.125Z,88.29
2022-10-17T18:05:47.992Z,88.29
2022-10-17T18:08:17.823Z,88.66
2022-10-17T18:10:53.305Z,88.63
2022-10-17T18:13:23.122Z,88.46
2022-10-17T18:15:55.763Z,88.73
2022-10-17T18:18:26.860Z,88.85
2022-10-17T18:20:56.875Z,88.83
2022-10-17T18:23:26.453Z,89.29
2022-10-17T18:25:57.793Z,89.73
2022-10-17T18:28:27.942Z,88.98
2022-10-17T18:31:00.811Z,89.13
2022-10-17T18:33:30.549Z,89.08
2022-10-17T18:36:07.065Z,89.20
2022-10-17T18:38:37.446Z,89.65
2022-10-17T18:41:11.992Z,89.21
2022-10-17T18:43:44.098Z,89.75
2022-10-17T18:46:16.722Z,89.35
2022-10-17T18:48:47.511Z,89.64
2022-10-17T18:51:19.877Z,89.53
2022-10-17T18:53:52.581Z,89.53
2022-10-17T18:56:22.750Z,90.04
2022-10-17T18:58:53.146Z,90.10
2022-10-17T19:01:25.525Z,89.79
2022-10-17T19:03:57.985Z,89.46
2022-10-17T19:06:31.899Z,89.70
2022-10-17T19:09:03.580Z,89.72
2022-10-17T19:11:34.662Z,89.60
2022-10-17T19:14:12.875Z,89.32
2022-10-17T19:16:48.844Z,89.80
2022-10-17T19:19:21.330Z,90.06
2022-10-17T19:21:51.689Z,89.57
2022-10-17T19:24:25.051Z,89.70
2022-10-17T19:26:58.245Z,90.17
2022-10-17T19:29:31.444Z,89.32
2022-10-17T19:32:02.644Z,89.52
2022-10-17T19:34:32.853Z,89.06
2022-10-17T19:37:02.594Z,89.21
2022-10-17T19:39:33.021Z,88.48
2022-10-17T19:42:06.673Z,89.15
2022-10-17T19:44:35.085Z,89.53
2022-10-17T19:47:04.846Z,89.97
2022-10-17T19:49:34.625Z,89.20
2022-10-17T19:52:06.333Z,89.05
2022-10-17T19:54:36.090Z,89.18
2022-10-17T19:57:09.565Z,89.08
2022-10-17T19:59:37.341Z,90.43
2022-10-17T20:02:08.424Z,90.43
2022-10-17T20:04:49.490Z,90.35
2022-10-17T20:07:09.729Z,89.79
2022-10-17T20:09:39.610Z,89.66
2022-10-17T20:12:10.494Z,89.16
2022-10-17T20:14:41.210Z,89.51
2022-10-17T20:17:11.115Z,89.70
2022-10-17T20:19:40.966Z,89.78
2022-10-17T20:22:11.512Z,89.93
2022-10-17T20:24:41.278Z,89.89
2022-10-17T20:27:11.030Z,89.79
2022-10-17T20:29:40.905Z,90.43
2022-10-17T20:32:11.812Z,89.27
2022-10-17T20:34:41.698Z,89.44
2022-10-17T20:37:11.748Z,90.57
2022-10-17T20:39:41.499Z,90.68
2022-10-17T20:42:11.646Z,91.09
2022-10-17T20:44:41.229Z,89.95
2022-10-17T20:47:16.278Z,90.11
2022-10-17T20:49:42.555Z,89.33
2022-10-17T20:52:12.459Z,89.74
2022-10-17T20:54:42.338Z,90.09
2022-10-17T20:57:12.451Z,89.51
2022-10-17T20:59:42.306Z,89.20
2022-10-17T21:02:14.159Z,89.20
2022-10-17T21:04:46.739Z,89.61
2022-10-17T21:07:15.791Z,89.83
2022-10-17T21:09:46.200Z,89.97
2022-10-17T21:12:25.971Z,89.82
2022-10-17T21:14:48.688Z,88.68
2022-10-17T21:17:18.438Z,88.68
2022-10-17T21:19:49.275Z,88.54
2022-10-17T21:22:18.962Z,89.42
2022-10-17T21:24:48.751Z,89.25
2022-10-17T21:27:20.233Z,89.68
2022-10-17T21:29:50.049Z,89.42
2022-10-17T21:32:32.128Z,89.30
2022-10-17T21:34:51.534Z,89.28
2022-10-17T21:37:21.581Z,89.90
2022-10-17T21:39:51.320Z,88.61
2022-10-17T21:42:21.470Z,88.89
2022-10-17T21:44:51.523Z,88.71
2022-10-17T21:47:23.274Z,88.00
2022-10-17T21:49:53.181Z,87.75
2022-10-17T21:52:22.834Z,88.45
2022-10-17T21:54:52.566Z,88.63
2022-10-17T21:57:22.614Z,89.12
2022-10-17T21:59:52.373Z,88.95
2022-10-17T22:02:22.046Z,88.91
2022-10-17T22:04:51.808Z,88.89
2022-10-17T22:07:21.544Z,89.63
2022-10-17T22:09:51.313Z,89.22
2022-10-17T22:12:21.039Z,89.26
2022-10-17T22:14:50.812Z,88.04
2022-10-17T22:17:20.543Z,88.04
2022-10-17T22:19:50.285Z,88.01
2022-10-17T22:22:20.073Z,88.28
2022-10-17T22:24:49.824Z,88.48
2022-10-17T22:27:19.870Z,88.23
2022-10-17T22:29:49.614Z,89.55
2022-10-17T22:32:21.721Z,89.24
2022-10-17T22:34:50.596Z,88.46
2022-10-17T22:37:20.407Z,88.16
2022-10-17T22:39:50.222Z,88.17
2022-10-17T22:42:19.664Z,88.23
2022-10-17T22:44:49.702Z,88.35
2022-10-17T22:47:19.429Z,88.61
2022-10-17T22:49:49.185Z,87.96
2022-10-17T22:52:18.872Z,89.13
2022-10-17T22:54:49.119Z,89.62
2022-10-17T22:57:18.917Z,89.21
2022-10-17T22:59:48.687Z,88.50
2022-10-17T23:02:18.243Z,88.28
2022-10-17T23:04:47.978Z,87.85
2022-10-17T23:07:17.720Z,88.33
2022-10-17T23:09:47.474Z,88.23
2022-10-17T23:12:17.207Z,88.98
2022-10-17T23:14:46.947Z,88.98
2022-10-17T23:17:17.225Z,88.64
2022-10-17T23:19:46.991Z,87.93
2022-10-17T23:22:17.063Z,88.53
2022-10-17T23:24:46.807Z,88.53
2022-10-17T23:27:16.605Z,88.56
2022-10-17T23:29:46.700Z,88.84
2022-10-17T23:32:16.116Z,88.84
2022-10-17T23:34:45.882Z,88.27
2022-10-17T23:37:15.619Z,88.54
2022-10-17T23:39:45.389Z,88.94
2022-10-17T23:42:15.193Z,89.21
2022-10-17T23:44:44.964Z,88.88
2022-10-17T23:47:14.789Z,89.64
2022-10-17T23:49:44.539Z,88.84
2022-10-17T23:52:14.193Z,88.24
2022-10-17T23:54:44.796Z,88.08
2022-10-17T23:57:14.631Z,88.67
2022-10-17T23:59:44.753Z,88.81
